Terminal Aerodrome Forecast
Issued by NWS

Home | Current Version | Previous Version | Text Only | Print | Product List | Glossary On
Versions: 1 2 3 4 5 6 7 8 9 10 11 12 13
488
FTUS43 KGRB 052328
TAFAUW
TAF
KAUW 052328Z 0600/0624 26005KT P6SM SCT100 SCT150
     FM060900 26006KT P6SM SCT200 WS020/29030KT
     FM061800 24010G16KT P6SM SCT100 SCT200=

USA.gov is the U.S. government's official web portal to all federal, state and local government web resources and services.